»·PEaware :: FDX982 KDEN-KPHX

FDX982 :: KDEN-KPHX

FLIGHT INFORMATION

Flight Status: Arrived
Operator:
Federal Express
More flights by this operator :: More flights under this callsign
Pilot: Anonymous 15639 (15639)
Aircraft: BOEING 727-200
(B722)
More flights by this aircraft type
Origin: KDEN Denver Intl
United States
Destination: KPHX Phoenix Sky Harbor Intl
United States
More flights between these airports :: More routes between these airports
Route: ROCKI4 HBU J10 RSK J161 ZUN BUNTR3
File this flight plan on PilotEdge
Remarks:
Altitude:
(Current/Filed)
32,000ft
Speed:
(Current/Filed)
486kts
Departed: 22-Sep-18 02:33 PM
Arrived: 22-Sep-18 04:01 PM
Distance/Time
Traveled:
523nm/1:28
Distance/Time
To Go:
Arrived

Flight Plot

Page will automatically refresh every two minutes.

Flight plan parsing failed; only flown route is shown


Map Options




Map Legend


Flown Route
Filed Route
Departure Airport
Arrival Airport
Navaid (VOR, NDB)
Fix

Horizontal Profiles

Position Reports

Time Latitude Longitude Heading Altitude Ground
Speed
22-Sep-18 13:58 39.830942 -104.675813 359 5446ft 0kts
22-Sep-18 13:59 39.830942 -104.675813 359 5446ft 0kts
22-Sep-18 14:00 39.830942 -104.675813 359 5446ft 0kts
22-Sep-18 14:01 39.830942 -104.675813 359 5446ft 0kts
22-Sep-18 14:02 39.830942 -104.675813 359 5446ft 0kts
22-Sep-18 14:03 39.830942 -104.675813 359 5446ft 0kts
22-Sep-18 14:04 39.830942 -104.675813 359 5446ft 0kts
22-Sep-18 14:05 39.830942 -104.675813 359 5446ft 0kts
22-Sep-18 14:06 39.830942 -104.675813 360 5446ft 0kts
22-Sep-18 14:07 39.830942 -104.675813 360 5446ft 0kts
22-Sep-18 14:08 39.830942 -104.675813 360 5446ft 0kts
22-Sep-18 14:09 39.830942 -104.675813 360 5446ft 0kts
22-Sep-18 14:10 39.830942 -104.675813 360 5446ft 0kts
22-Sep-18 14:11 39.830942 -104.675813 360 5446ft 0kts
22-Sep-18 14:12 39.830942 -104.675813 360 5446ft 0kts
22-Sep-18 14:13 39.830942 -104.675813 0 5446ft 0kts
22-Sep-18 14:14 39.830736 -104.675814 359 5446ft 2kts
22-Sep-18 14:15 39.830161 -104.675920 51 5446ft 2kts
22-Sep-18 14:16 39.830105 -104.676204 90 5446ft 0kts
22-Sep-18 14:17 39.830105 -104.676204 90 5446ft 0kts
22-Sep-18 14:18 39.830105 -104.676204 90 5446ft 0kts
22-Sep-18 14:19 39.830105 -104.676204 90 5446ft 0kts
22-Sep-18 14:20 39.830100 -104.675250 90 5446ft 5kts
22-Sep-18 14:21 39.829994 -104.672738 113 5446ft 10kts
22-Sep-18 14:22 39.829364 -104.669242 90 5446ft 9kts
22-Sep-18 14:23 39.829329 -104.665926 91 5446ft 8kts
22-Sep-18 14:24 39.829399 -104.662954 61 5446ft 8kts
22-Sep-18 14:25 39.832210 -104.662619 359 5446ft 13kts
22-Sep-18 14:26 39.836163 -104.662566 0 5446ft 14kts
22-Sep-18 14:27 39.840264 -104.662539 1 5446ft 15kts
22-Sep-18 14:28 39.844552 -104.662464 0 5446ft 15kts
22-Sep-18 14:29 39.848322 -104.662425 0 5446ft 10kts
22-Sep-18 14:30 39.851359 -104.662385 0 5446ft 11kts
22-Sep-18 14:31 39.854489 -104.662350 0 5446ft 11kts
22-Sep-18 14:32 39.857706 -104.662313 1 5446ft 11kts
22-Sep-18 14:33 39.860541 -104.662296 359 5446ft 5kts
22-Sep-18 14:34 39.861003 -104.660562 103 5446ft 6kts
22-Sep-18 14:35 39.843069 -104.660264 178 5447ft 161kts
22-Sep-18 14:36 39.804887 -104.686244 249 6824ft 202kts
22-Sep-18 14:37 39.787142 -104.771286 254 8680ft 273kts
22-Sep-18 14:38 39.763144 -104.868032 233 11768ft 290kts
22-Sep-18 14:39 39.730628 -104.969396 250 13564ft 342kts
22-Sep-18 14:40 39.698048 -105.089978 251 16587ft 350kts
22-Sep-18 14:41 39.665545 -105.210567 251 19106ft 362kts
22-Sep-18 14:42 39.631427 -105.336705 251 21086ft 379kts
22-Sep-18 14:43 39.596300 -105.465949 252 23208ft 384kts
22-Sep-18 14:44 39.560048 -105.597793 252 24936ft 394kts
22-Sep-18 14:45 39.522789 -105.732986 250 26415ft 404kts
22-Sep-18 14:46 39.484613 -105.870974 250 27785ft 413kts
22-Sep-18 14:47 39.445463 -106.011810 250 29018ft 421kts
22-Sep-18 14:48 39.405637 -106.153846 249 30117ft 428kts
22-Sep-18 14:49 39.318113 -106.255738 215 31033ft 439kts
22-Sep-18 14:50 39.217887 -106.345233 217 31939ft 444kts
22-Sep-18 14:51 39.117093 -106.437487 217 32441ft 456kts
22-Sep-18 14:52 39.013163 -106.532717 217 32436ft 460kts
22-Sep-18 14:53 38.909830 -106.627066 217 32381ft 461kts
22-Sep-18 14:54 38.814079 -106.713285 216 32332ft 463kts
22-Sep-18 14:55 38.716756 -106.801471 217 32330ft 463kts
22-Sep-18 14:56 38.612215 -106.895853 217 32330ft 463kts
22-Sep-18 14:57 38.507621 -106.991118 217 32329ft 463kts
22-Sep-18 14:58 38.398840 -107.073754 207 32329ft 464kts
22-Sep-18 14:59 38.285272 -107.148489 209 32328ft 463kts
22-Sep-18 15:00 38.170739 -107.222783 209 32327ft 464kts
22-Sep-18 15:01 38.056588 -107.296545 209 32434ft 461kts
22-Sep-18 15:02 37.943536 -107.369369 209 32436ft 461kts
22-Sep-18 15:03 37.834917 -107.438608 209 32437ft 462kts
22-Sep-18 15:04 37.722107 -107.510514 209 32436ft 462kts
22-Sep-18 15:05 37.608519 -107.582918 210 32435ft 462kts
22-Sep-18 15:06 37.494578 -107.655329 209 32345ft 464kts
22-Sep-18 15:07 37.384014 -107.725374 209 32285ft 466kts
22-Sep-18 15:08 37.266822 -107.794278 204 32284ft 468kts
22-Sep-18 15:09 37.146991 -107.854787 209 32290ft 464kts
22-Sep-18 15:10 37.031407 -107.925931 209 32283ft 464kts
22-Sep-18 15:11 36.918153 -107.995583 209 32247ft 465kts
22-Sep-18 15:12 36.829010 -108.049696 209 32209ft 465kts
22-Sep-18 15:13 36.719810 -108.115698 209 32211ft 465kts
22-Sep-18 15:14 36.605112 -108.186176 210 32208ft 464kts
22-Sep-18 15:15 36.489371 -108.256471 210 32208ft 463kts
22-Sep-18 15:16 36.375292 -108.325543 210 32207ft 463kts
22-Sep-18 15:17 36.260717 -108.394686 210 32206ft 462kts
22-Sep-18 15:18 36.146153 -108.463586 210 32205ft 461kts
22-Sep-18 15:19 36.031341 -108.532435 210 32277ft 459kts
22-Sep-18 15:20 35.918066 -108.600137 210 32277ft 458kts
22-Sep-18 15:21 35.814396 -108.661391 209 32286ft 458kts
22-Sep-18 15:22 35.702554 -108.729265 210 32287ft 458kts
22-Sep-18 15:23 35.587713 -108.796605 209 32285ft 459kts
22-Sep-18 15:24 35.472580 -108.863456 209 32284ft 459kts
22-Sep-18 15:25 35.359333 -108.928946 209 32284ft 459kts
22-Sep-18 15:26 35.244720 -108.995013 209 32283ft 459kts
22-Sep-18 15:27 35.130446 -109.060710 209 32278ft 457kts
22-Sep-18 15:28 35.016693 -109.126379 210 32243ft 456kts
22-Sep-18 15:29 34.916079 -109.211665 243 32227ft 438kts
22-Sep-18 15:30 34.882833 -109.339692 254 32217ft 435kts
22-Sep-18 15:31 34.845542 -109.479425 248 32222ft 434kts
22-Sep-18 15:32 34.796809 -109.613618 247 32214ft 434kts
22-Sep-18 15:33 34.750204 -109.739287 246 32223ft 435kts
22-Sep-18 15:34 34.703627 -109.864464 246 32223ft 436kts
22-Sep-18 15:35 34.653737 -109.998047 246 32275ft 435kts
22-Sep-18 15:36 34.603886 -110.131105 246 32273ft 436kts
22-Sep-18 15:37 34.553684 -110.264133 245 32265ft 426kts
22-Sep-18 15:38 34.505555 -110.391835 246 30046ft 413kts
22-Sep-18 15:39 34.458866 -110.515178 246 28082ft 397kts
22-Sep-18 15:40 34.413145 -110.635454 246 26350ft 392kts
22-Sep-18 15:41 34.367909 -110.753824 246 24670ft 391kts
22-Sep-18 15:42 34.324425 -110.871288 222 22974ft 389kts
22-Sep-18 15:43 34.242856 -110.956398 224 21365ft 388kts
22-Sep-18 15:44 34.168197 -111.047648 226 20157ft 378kts
22-Sep-18 15:45 34.108282 -111.123205 226 19151ft 372kts
22-Sep-18 15:46 34.026054 -111.227462 225 17730ft 358kts
22-Sep-18 15:47 33.959234 -111.312117 225 16278ft 345kts
22-Sep-18 15:48 33.904595 -111.381167 225 14935ft 340kts
22-Sep-18 15:49 33.829656 -111.474870 225 14254ft 331kts
22-Sep-18 15:50 33.776449 -111.541697 225 14048ft 332kts
22-Sep-18 15:51 33.723823 -111.630153 236 13931ft 315kts
22-Sep-18 15:52 33.676082 -111.720420 236 12246ft 319kts
22-Sep-18 15:53 33.628975 -111.809130 236 10941ft 312kts
22-Sep-18 15:54 33.583120 -111.896430 236 9602ft 307kts
22-Sep-18 15:55 33.538533 -111.981036 238 7954ft 294kts
22-Sep-18 15:56 33.529682 -112.075829 268 6585ft 277kts
22-Sep-18 15:57 33.526424 -112.163985 268 5390ft 253kts
22-Sep-18 15:58 33.496190 -112.225521 187 4296ft 234kts
22-Sep-18 15:59 33.445628 -112.189174 136 3536ft 213kts
22-Sep-18 16:00 33.425590 -112.135009 78 3022ft 166kts
22-Sep-18 16:01 33.428452 -112.083840 94 2055ft 148kts
22-Sep-18 16:02 33.428831 -112.033823 89 1297ft 152kts
22-Sep-18 16:03 33.428921 -112.005257 137 1143ft 11kts
22-Sep-18 16:04 33.427754 -112.007793 266 1143ft 14kts
22-Sep-18 16:05 33.427740 -112.012805 270 1143ft 9kts
22-Sep-18 16:06 33.427742 -112.016743 270 1143ft 15kts
22-Sep-18 16:07 33.426322 -112.017305 135 1143ft 7kts
22-Sep-18 16:08 33.426188 -112.016511 89 1143ft 0kts
22-Sep-18 16:09 33.426188 -112.016511 89 1143ft 0kts

Navigation Log

Ident Type
Flight plan parsing failed, navigation log unavailable